createdAt,value
2018-10-19T00:00:39.344Z,12.20
2018-10-19T00:03:07.040Z,12.10
2018-10-19T00:05:34.668Z,12.10
2018-10-19T00:08:02.366Z,12.00
2018-10-19T00:10:30.015Z,11.90
2018-10-19T00:12:57.776Z,11.90
2018-10-19T00:15:26.468Z,11.80
2018-10-19T00:17:54.145Z,11.80
2018-10-19T00:20:21.812Z,11.80
2018-10-19T00:22:49.591Z,11.80
2018-10-19T00:25:17.362Z,11.70
2018-10-19T00:27:46.064Z,11.70
2018-10-19T00:30:13.787Z,11.80
2018-10-19T00:32:41.418Z,11.70
2018-10-19T00:35:09.627Z,11.70
2018-10-19T00:37:37.192Z,11.60
2018-10-19T00:40:05.375Z,11.60
2018-10-19T00:42:32.982Z,11.50
2018-10-19T00:45:00.860Z,11.40
2018-10-19T00:47:28.482Z,11.30
2018-10-19T00:49:56.134Z,11.30
2018-10-19T00:52:23.826Z,11.30
2018-10-19T00:54:51.502Z,11.10
2018-10-19T00:57:19.131Z,11.10
2018-10-19T00:59:46.760Z,11.00
2018-10-19T01:02:14.438Z,11.00
2018-10-19T01:04:42.157Z,10.90
2018-10-19T01:07:09.802Z,11.00
2018-10-19T01:09:37.496Z,10.90
2018-10-19T01:12:05.509Z,10.90
2018-10-19T01:14:33.136Z,10.90
2018-10-19T01:17:00.860Z,10.90
2018-10-19T01:19:28.409Z,10.90
2018-10-19T01:21:56.153Z,10.80
2018-10-19T01:24:23.885Z,10.80
2018-10-19T01:26:51.616Z,10.70
2018-10-19T01:29:19.218Z,10.70
2018-10-19T01:31:46.953Z,10.70
2018-10-19T01:34:14.680Z,10.60
2018-10-19T01:36:44.226Z,10.60
2018-10-19T01:39:12.695Z,10.50
2018-10-19T01:41:41.084Z,10.50
2018-10-19T01:44:09.472Z,10.40
2018-10-19T01:46:37.605Z,10.30
2018-10-19T01:49:05.294Z,10.40
2018-10-19T01:51:32.951Z,10.40
2018-10-19T01:54:00.946Z,10.20
2018-10-19T01:56:28.691Z,10.20
2018-10-19T01:58:56.346Z,10.00
2018-10-19T02:01:23.894Z,10.00
2018-10-19T02:03:51.739Z,10.00
2018-10-19T02:06:19.463Z,10.00
2018-10-19T02:08:47.176Z,10.10
2018-10-19T02:11:14.888Z,9.90
2018-10-19T02:13:42.544Z,9.90
2018-10-19T02:16:10.165Z,9.90
2018-10-19T02:18:37.790Z,9.90
2018-10-19T02:21:05.962Z,9.90
2018-10-19T02:23:34.695Z,10.00
2018-10-19T02:26:02.394Z,10.00
2018-10-19T02:28:30.056Z,10.10
2018-10-19T02:30:57.760Z,10.00
2018-10-19T02:33:25.631Z,10.10
2018-10-19T02:35:53.262Z,10.10
2018-10-19T02:38:22.087Z,10.10
2018-10-19T02:40:49.774Z,10.10
2018-10-19T02:43:17.418Z,10.10
2018-10-19T02:45:45.097Z,10.10
2018-10-19T02:48:24.631Z,10.10
2018-10-19T02:50:52.502Z,10.10
2018-10-19T02:53:20.189Z,10.10
2018-10-19T02:55:47.805Z,10.20
2018-10-19T02:58:15.502Z,10.20
2018-10-19T03:00:43.153Z,10.40
2018-10-19T03:03:10.847Z,10.40
2018-10-19T03:05:38.417Z,10.50
2018-10-19T03:08:06.050Z,10.50
2018-10-19T03:10:33.660Z,10.50
2018-10-19T03:13:02.855Z,10.60
2018-10-19T03:15:30.701Z,10.60
2018-10-19T03:17:58.307Z,10.60
2018-10-19T03:20:25.970Z,10.60
2018-10-19T03:22:53.639Z,10.60
2018-10-19T03:25:21.316Z,10.70
2018-10-19T03:27:49.955Z,10.70
2018-10-19T03:30:17.713Z,10.70
2018-10-19T03:32:45.392Z,10.80
2018-10-19T03:35:13.059Z,10.80
2018-10-19T03:37:40.804Z,10.70
2018-10-19T03:40:08.534Z,10.70
2018-10-19T03:42:36.203Z,10.70
2018-10-19T03:45:03.902Z,10.70
2018-10-19T03:47:31.480Z,10.70
2018-10-19T03:50:00.236Z,10.60
2018-10-19T03:52:27.917Z,10.70
2018-10-19T03:54:55.507Z,10.70
2018-10-19T03:57:23.182Z,10.80
2018-10-19T03:59:50.856Z,10.80
2018-10-19T04:02:18.519Z,10.80
2018-10-19T04:04:46.228Z,10.80
2018-10-19T04:07:14.441Z,10.80
2018-10-19T04:09:42.092Z,10.80
2018-10-19T04:12:09.781Z,10.80
2018-10-19T04:14:37.509Z,10.80
2018-10-19T04:17:05.446Z,10.80
2018-10-19T04:19:33.070Z,10.70
2018-10-19T04:22:00.757Z,10.70
2018-10-19T04:24:28.466Z,10.60
2018-10-19T04:26:56.164Z,10.50
2018-10-19T04:29:23.919Z,10.50
2018-10-19T04:31:51.940Z,10.50
2018-10-19T04:34:19.628Z,10.50
2018-10-19T04:36:47.406Z,10.50
2018-10-19T04:39:19.149Z,10.50
2018-10-19T04:41:47.042Z,10.50
2018-10-19T04:44:14.555Z,10.40
2018-10-19T04:46:42.187Z,10.40
2018-10-19T04:49:09.834Z,10.30
2018-10-19T04:51:37.484Z,10.30
2018-10-19T04:54:06.391Z,10.30
2018-10-19T04:56:34.127Z,10.30
2018-10-19T04:59:02.069Z,10.30
2018-10-19T05:01:34.210Z,10.40
2018-10-19T05:04:01.996Z,10.40
2018-10-19T05:06:29.961Z,10.40
2018-10-19T05:08:57.507Z,10.50
2018-10-19T05:11:29.080Z,10.50
2018-10-19T05:13:56.965Z,10.50
2018-10-19T05:16:26.322Z,10.60
2018-10-19T05:18:54.115Z,10.60
2018-10-19T05:21:22.053Z,10.60
2018-10-19T05:23:50.012Z,10.60
2018-10-19T05:26:20.021Z,10.50
2018-10-19T05:28:47.844Z,10.50
2018-10-19T05:31:15.869Z,10.50
2018-10-19T05:33:46.410Z,10.50
2018-10-19T06:25:12.438Z,10.40
2018-10-19T06:31:04.462Z,9.70
2018-10-19T06:33:53.288Z,9.70
2018-10-19T07:02:14.622Z,9.70
2018-10-19T07:04:42.323Z,10.80
2018-10-19T07:07:09.971Z,11.00
2018-10-19T07:09:37.706Z,11.20
2018-10-19T07:12:06.748Z,11.50
2018-10-19T07:14:34.676Z,11.60
2018-10-19T07:17:02.358Z,11.70
2018-10-19T07:19:30.196Z,12.00
2018-10-19T07:21:57.863Z,12.20
2018-10-19T07:24:25.567Z,12.40
2018-10-19T07:26:58.306Z,12.50
2018-10-19T07:29:25.996Z,12.70
2018-10-19T07:31:53.642Z,12.60
2018-10-19T07:34:21.345Z,12.70
2018-10-19T07:39:35.156Z,12.90
2018-10-19T07:42:02.900Z,13.00
2018-10-19T07:44:30.673Z,13.10
2018-10-19T07:46:58.702Z,13.30
2018-10-19T07:49:26.453Z,13.60
2018-10-19T07:51:54.652Z,13.90
2018-10-19T07:54:22.904Z,14.00
2018-10-19T08:06:33.575Z,14.70
2018-10-19T11:45:57.919Z,14.90
2018-10-19T11:48:25.711Z,17.90
2018-10-19T11:50:53.463Z,17.80
2018-10-19T11:53:21.189Z,17.80
2018-10-19T11:55:48.991Z,17.80
2018-10-19T11:58:17.773Z,17.70
2018-10-19T12:00:45.410Z,17.60
2018-10-19T12:03:14.193Z,17.60
2018-10-19T12:05:42.043Z,17.50
2018-10-19T12:08:09.892Z,17.50
2018-10-19T12:10:37.689Z,17.40
2018-10-19T12:13:05.687Z,17.40
2018-10-19T12:15:33.418Z,17.40
2018-10-19T12:18:01.271Z,17.40
2018-10-19T12:20:29.021Z,17.40
2018-10-19T12:22:56.701Z,17.30
2018-10-19T12:25:24.510Z,17.30
2018-10-19T12:27:53.299Z,17.40
2018-10-19T12:30:21.062Z,17.40
2018-10-19T12:32:48.821Z,17.40
2018-10-19T12:35:16.754Z,17.30
2018-10-19T12:37:44.371Z,17.30
2018-10-19T12:40:12.429Z,17.40
2018-10-19T12:42:40.417Z,17.40
2018-10-19T12:45:13.815Z,17.40
2018-10-19T12:48:10.132Z,17.30
2018-10-19T12:50:46.031Z,17.20
2018-10-19T12:53:32.110Z,17.30
2018-10-19T14:26:12.802Z,17.10
2018-10-19T14:28:40.711Z,16.60
2018-10-19T14:31:15.133Z,16.60
2018-10-19T14:33:43.713Z,16.70
2018-10-19T14:36:13.199Z,16.60
2018-10-19T14:38:41.012Z,16.60
2018-10-19T14:41:08.943Z,16.60
2018-10-19T14:43:36.652Z,16.60
2018-10-19T14:46:05.477Z,16.70
2018-10-19T14:48:33.357Z,16.60
2018-10-19T14:51:01.138Z,16.60
2018-10-19T14:53:28.781Z,16.60
2018-10-19T14:55:56.715Z,16.60
2018-10-19T14:58:24.513Z,16.50
2018-10-19T15:00:52.342Z,16.50
2018-10-19T15:03:20.297Z,16.40
2018-10-19T15:05:48.446Z,16.50
2018-10-19T16:03:44.927Z,16.70
2018-10-19T18:53:28.364Z,14.90
2018-10-19T19:05:31.466Z,14.50
2018-10-19T19:11:52.235Z,14.30
2018-10-19T19:52:22.422Z,14.00
2018-10-19T19:54:59.561Z,13.90
2018-10-19T19:57:47.437Z,13.90
2018-10-19T20:00:29.267Z,14.00
2018-10-19T20:03:10.867Z,14.00
2018-10-19T20:05:53.555Z,14.00
2018-10-19T20:17:23.728Z,14.10
2018-10-19T20:20:08.373Z,14.10
2018-10-19T20:26:14.597Z,14.00
2018-10-19T21:11:32.369Z,14.30
2018-10-19T21:34:24.503Z,14.20
2018-10-19T21:37:07.443Z,14.10
2018-10-19T21:39:43.437Z,14.00
2018-10-19T21:42:22.994Z,14.00
2018-10-19T21:51:45.575Z,13.80
2018-10-19T21:59:52.429Z,13.70
2018-10-19T22:02:29.829Z,13.70
2018-10-19T22:05:00.224Z,13.50
2018-10-19T22:07:30.586Z,13.40
2018-10-19T22:10:06.908Z,13.40
2018-10-19T22:12:39.108Z,13.40
2018-10-19T22:15:08.552Z,13.40
2018-10-19T22:17:42.646Z,13.40
2018-10-19T22:20:12.915Z,13.30
2018-10-19T22:22:46.379Z,13.30
2018-10-19T22:25:19.981Z,13.30
2018-10-19T22:27:54.723Z,13.30
2018-10-19T22:30:25.772Z,13.30
2018-10-19T22:33:05.309Z,13.40
2018-10-19T22:35:43.201Z,13.30
2018-10-19T22:38:18.318Z,13.30
2018-10-19T22:40:48.564Z,13.20
2018-10-19T22:43:17.655Z,13.20
2018-10-19T22:46:09.038Z,13.20
2018-10-19T22:49:06.146Z,13.20
2018-10-19T22:51:50.736Z,13.10
2018-10-19T22:54:24.525Z,13.00
2018-10-19T22:56:55.030Z,13.10
2018-10-19T22:59:29.537Z,13.10
2018-10-19T23:02:04.727Z,13.10
2018-10-19T23:04:34.611Z,13.10
2018-10-19T23:09:46.548Z,13.10
2018-10-19T23:12:18.257Z,13.10
2018-10-19T23:14:53.187Z,13.00
2018-10-19T23:17:27.580Z,13.00
2018-10-19T23:20:03.897Z,13.00
2018-10-19T23:22:35.596Z,12.90
2018-10-19T23:25:07.444Z,12.90
2018-10-19T23:27:39.929Z,12.90
2018-10-19T23:35:46.427Z,12.80
2018-10-19T23:49:34.885Z,12.90
2018-10-19T23:52:09.527Z,12.90
2018-10-19T23:54:39.651Z,12.90
2018-10-19T23:57:16.100Z,12.90
2018-10-19T23:59:51.249Z,12.90
